Time;durP1;ratioP1;P1;durP2;ratioP2;P2;SDS_P1;SDS_P2;PMS_P1;PMS_P2;Temp;Humidity;BMP_temperature;BMP_pressure;BME280_temperature;BME280_humidity;BME280_pressure;Samples;Min_cycle;Max_cycle;Signal;HPM_P1;HPM_P2
2022/11/26 00:00:12;;;;;;;54.35;19.73;;;;;;;;;;5113644;28;20192;-66
2022/11/26 00:02:39;;;;;;;39.83;18.83;;;;;;;;;;5113513;28;20203;-65
2022/11/26 00:05:07;;;;;;;35.28;18.08;;;;;;;;;;5113774;28;20666;-65
2022/11/26 00:07:35;;;;;;;33.70;17.83;;;;;;;;;;5113617;28;20595;-65
2022/11/26 00:10:03;;;;;;;32.97;18.27;;;;;;;;;;5114012;28;20199;-65
2022/11/26 00:12:32;;;;;;;48.55;20.20;;;;;;;;;;5113701;28;20200;-65
2022/11/26 00:15:00;;;;;;;38.60;19.83;;;;;;;;;;5114092;28;20226;-65
2022/11/26 00:17:28;;;;;;;41.83;18.88;;;;;;;;;;5113580;28;20556;-65
2022/11/26 00:19:55;;;;;;;36.83;21.35;;;;;;;;;;5113604;28;20197;-65
2022/11/26 00:22:24;;;;;;;37.10;18.65;;;;;;;;;;5113488;28;20200;-65
2022/11/26 00:24:53;;;;;;;44.22;20.35;;;;;;;;;;5113231;28;20676;-66
2022/11/26 00:27:20;;;;;;;48.30;21.77;;;;;;;;;;5113060;28;20210;-65
2022/11/26 00:29:48;;;;;;;52.05;21.95;;;;;;;;;;5113813;28;20284;-65
2022/11/26 00:32:16;;;;;;;41.97;20.52;;;;;;;;;;5113082;28;20287;-64
2022/11/26 00:34:43;;;;;;;45.58;22.33;;;;;;;;;;5116342;28;20569;-65
2022/11/26 00:37:18;;;;;;;46.38;22.23;;;;;;;;;;5117181;28;20201;-65
2022/11/26 00:39:45;;;;;;;46.72;19.85;;;;;;;;;;5116965;28;20707;-65
2022/11/26 00:42:14;;;;;;;39.80;20.88;;;;;;;;;;5116965;28;20223;-65
2022/11/26 00:44:41;;;;;;;40.92;22.75;;;;;;;;;;5117094;28;20193;-65
2022/11/26 00:47:09;;;;;;;44.72;20.83;;;;;;;;;;5116713;27;20192;-65
2022/11/26 00:49:37;;;;;;;61.50;26.30;;;;;;;;;;5117077;28;20192;-65
2022/11/26 00:52:04;;;;;;;43.58;21.77;;;;;;;;;;5117294;28;20203;-65
2022/11/26 00:54:31;;;;;;;48.75;21.52;;;;;;;;;;5116715;28;20207;-65
2022/11/26 00:56:58;;;;;;;50.70;22.92;;;;;;;;;;5116452;28;20213;-65
2022/11/26 00:59:27;;;;;;;58.92;22.42;;;;;;;;;;5116805;28;20199;-65
2022/11/26 01:01:54;;;;;;;64.75;24.77;;;;;;;;;;5117205;28;20196;-65
2022/11/26 01:04:21;;;;;;;48.60;21.10;;;;;;;;;;5116528;28;20195;-65
2022/11/26 01:06:48;;;;;;;49.72;21.25;;;;;;;;;;5116343;28;20200;-65
2022/11/26 01:09:17;;;;;;;50.33;23.25;;;;;;;;;;5116704;28;20294;-65
2022/11/26 01:11:44;;;;;;;42.35;21.35;;;;;;;;;;5117089;28;20197;-65
2022/11/26 01:14:15;;;;;;;43.83;24.27;;;;;;;;;;5116954;28;20196;-65
2022/11/26 01:16:44;;;;;;;51.17;22.80;;;;;;;;;;5116793;28;20211;-65
2022/11/26 01:19:12;;;;;;;46.80;21.25;;;;;;;;;;5116531;28;20204;-65
2022/11/26 01:21:40;;;;;;;49.40;23.02;;;;;;;;;;5116041;28;20287;-65
2022/11/26 01:24:07;;;;;;;49.05;23.27;;;;;;;;;;5116780;28;20558;-65
2022/11/26 01:26:35;;;;;;;49.88;22.17;;;;;;;;;;5116758;28;20199;-65
2022/11/26 01:29:02;;;;;;;59.83;22.25;;;;;;;;;;5116205;28;20223;-65
2022/11/26 01:31:30;;;;;;;46.95;20.55;;;;;;;;;;5116268;28;20284;-66
2022/11/26 01:33:59;;;;;;;36.50;21.80;;;;;;;;;;5116110;28;20291;-65
2022/11/26 01:36:27;;;;;;;48.60;20.38;;;;;;;;;;5116041;28;20312;-65
2022/11/26 01:38:55;;;;;;;55.30;21.67;;;;;;;;;;5115718;28;20200;-66
2022/11/26 01:41:40;;;;;;;52.80;19.50;;;;;;;;;;5116129;28;20203;-66
2022/11/26 01:44:09;;;;;;;52.08;20.30;;;;;;;;;;5115539;28;20626;-65
2022/11/26 01:46:37;;;;;;;65.03;21.27;;;;;;;;;;5115670;28;20650;-66
2022/11/26 01:49:20;;;;;;;56.45;22.33;;;;;;;;;;5115533;28;20201;-66
2022/11/26 01:51:48;;;;;;;61.90;21.75;;;;;;;;;;5116348;28;20293;-66
2022/11/26 01:54:16;;;;;;;62.95;22.10;;;;;;;;;;5115410;28;20204;-66
2022/11/26 01:56:46;;;;;;;64.95;21.58;;;;;;;;;;5115707;28;20216;-66
2022/11/26 01:59:17;;;;;;;41.47;22.20;;;;;;;;;;5115408;27;20180;-66
2022/11/26 02:01:45;;;;;;;72.10;22.67;;;;;;;;;;5115714;28;20185;-65
2022/11/26 02:04:14;;;;;;;77.32;24.67;;;;;;;;;;5115587;28;20246;-65
2022/11/26 02:06:43;;;;;;;62.47;20.67;;;;;;;;;;5115560;28;20196;-65
2022/11/26 02:09:11;;;;;;;61.60;23.35;;;;;;;;;;5115074;28;20188;-65
2022/11/26 02:11:38;;;;;;;95.38;25.30;;;;;;;;;;5115213;28;20540;-65
2022/11/26 02:14:07;;;;;;;44.00;21.88;;;;;;;;;;5115305;28;20541;-65
2022/11/26 02:16:50;;;;;;;57.50;22.40;;;;;;;;;;5115347;28;20212;-65
2022/11/26 02:19:30;;;;;;;62.05;22.85;;;;;;;;;;5115031;28;20184;-65
2022/11/26 02:22:03;;;;;;;50.30;22.35;;;;;;;;;;5115503;28;20184;-65
2022/11/26 02:24:38;;;;;;;53.65;22.17;;;;;;;;;;5115271;28;20185;-65
2022/11/26 02:27:23;;;;;;;55.40;22.55;;;;;;;;;;5115484;28;20235;-65
2022/11/26 02:30:11;;;;;;;60.00;24.10;;;;;;;;;;5114660;28;20239;-65
2022/11/26 02:32:47;;;;;;;47.15;22.58;;;;;;;;;;5109747;27;20195;-66
2022/11/26 02:35:20;;;;;;;51.20;24.52;;;;;;;;;;5114785;28;20642;-66
2022/11/26 02:37:48;;;;;;;55.78;26.88;;;;;;;;;;5114585;28;20265;-65
2022/11/26 02:40:16;;;;;;;55.42;25.55;;;;;;;;;;5114849;28;20193;-65
2022/11/26 02:42:43;;;;;;;50.25;25.33;;;;;;;;;;5114748;28;20243;-65
2022/11/26 02:45:12;;;;;;;45.70;24.95;;;;;;;;;;5114821;28;20196;-65
2022/11/26 02:47:41;;;;;;;46.05;25.75;;;;;;;;;;5114444;28;20203;-65
2022/11/26 02:50:13;;;;;;;63.25;26.08;;;;;;;;;;5114630;28;20200;-66
2022/11/26 02:52:42;;;;;;;59.33;26.92;;;;;;;;;;5114743;28;20196;-65
2022/11/26 02:55:10;;;;;;;53.45;25.92;;;;;;;;;;5114250;28;20664;-65
2022/11/26 02:57:42;;;;;;;51.08;26.85;;;;;;;;;;5114115;28;20216;-65
2022/11/26 03:00:09;;;;;;;61.03;26.02;;;;;;;;;;5114484;28;20184;-65
2022/11/26 03:02:41;;;;;;;93.72;28.75;;;;;;;;;;5114654;28;20222;-65
2022/11/26 03:05:11;;;;;;;51.17;25.58;;;;;;;;;;5114529;28;20276;-65
2022/11/26 03:07:38;;;;;;;57.08;26.95;;;;;;;;;;5114419;28;20195;-65
2022/11/26 03:10:06;;;;;;;57.35;29.05;;;;;;;;;;5113863;28;20201;-65
2022/11/26 03:12:33;;;;;;;54.67;28.25;;;;;;;;;;5114278;28;20198;-65
2022/11/26 03:15:00;;;;;;;62.40;25.88;;;;;;;;;;5113886;28;20201;-66
2022/11/26 03:17:28;;;;;;;62.03;25.58;;;;;;;;;;5114324;28;20224;-65
2022/11/26 03:19:55;;;;;;;52.35;28.50;;;;;;;;;;5114145;28;20284;-65
2022/11/26 03:22:23;;;;;;;48.47;25.98;;;;;;;;;;5114170;28;20196;-65
2022/11/26 03:24:51;;;;;;;58.83;25.52;;;;;;;;;;5113968;28;20737;-65
2022/11/26 03:27:18;;;;;;;85.50;29.20;;;;;;;;;;5114572;28;20201;-65
2022/11/26 03:29:45;;;;;;;66.25;26.75;;;;;;;;;;5113685;28;20668;-65
2022/11/26 03:32:12;;;;;;;63.92;28.02;;;;;;;;;;5113662;28;20645;-65
2022/11/26 03:34:39;;;;;;;61.35;27.85;;;;;;;;;;5113625;28;20660;-65
2022/11/26 03:37:07;;;;;;;59.78;27.45;;;;;;;;;;5114275;28;20255;-66
2022/11/26 03:39:35;;;;;;;76.43;30.58;;;;;;;;;;5113604;28;20195;-66
2022/11/26 03:42:02;;;;;;;83.05;29.27;;;;;;;;;;5114087;28;20227;-66
2022/11/26 03:44:30;;;;;;;62.63;27.33;;;;;;;;;;5113527;28;20203;-66
2022/11/26 03:46:57;;;;;;;59.60;27.65;;;;;;;;;;5113619;28;20653;-66
2022/11/26 03:49:24;;;;;;;60.88;28.17;;;;;;;;;;5113999;28;20285;-66
2022/11/26 03:51:51;;;;;;;63.83;27.45;;;;;;;;;;5114655;28;20226;-66
2022/11/26 03:54:18;;;;;;;63.25;28.23;;;;;;;;;;5113861;28;20207;-66
2022/11/26 03:56:47;;;;;;;56.38;26.70;;;;;;;;;;5113468;28;20234;-66
2022/11/26 03:59:14;;;;;;;75.25;29.77;;;;;;;;;;5113730;28;20198;-66
2022/11/26 04:01:41;;;;;;;84.93;27.30;;;;;;;;;;5114012;28;20252;-66
2022/11/26 04:04:08;;;;;;;75.35;28.80;;;;;;;;;;5113397;28;20197;-66
2022/11/26 04:06:36;;;;;;;105.07;28.30;;;;;;;;;;5113464;28;20680;-65
2022/11/26 04:09:03;;;;;;;66.60;25.63;;;;;;;;;;5115353;28;20197;-65
2022/11/26 04:11:30;;;;;;;50.85;23.25;;;;;;;;;;5117459;28;20191;-65
2022/11/26 04:13:59;;;;;;;70.13;26.40;;;;;;;;;;5117718;28;20621;-66
2022/11/26 04:16:26;;;;;;;75.07;22.27;;;;;;;;;;5117679;28;20217;-65
2022/11/26 04:18:53;;;;;;;59.78;22.40;;;;;;;;;;5117674;28;20294;-66
2022/11/26 04:21:20;;;;;;;60.63;21.83;;;;;;;;;;5117598;27;20561;-65
2022/11/26 04:23:48;;;;;;;84.00;23.58;;;;;;;;;;5117625;28;20193;-66
2022/11/26 04:26:15;;;;;;;65.75;22.27;;;;;;;;;;5117471;28;20203;-65
2022/11/26 04:28:42;;;;;;;46.30;20.92;;;;;;;;;;5117519;28;20199;-65
2022/11/26 04:31:11;;;;;;;59.15;19.75;;;;;;;;;;5117385;28;20658;-66
2022/11/26 04:33:38;;;;;;;52.40;21.25;;;;;;;;;;5117552;28;20203;-65
2022/11/26 04:36:05;;;;;;;61.88;20.88;;;;;;;;;;5117182;28;20206;-66
2022/11/26 04:38:32;;;;;;;44.15;20.27;;;;;;;;;;5116947;28;20188;-73
2022/11/26 04:41:00;;;;;;;61.83;22.60;;;;;;;;;;5116897;28;20688;-65
2022/11/26 04:43:27;;;;;;;49.72;22.38;;;;;;;;;;5117264;28;20271;-65
2022/11/26 04:45:54;;;;;;;52.28;20.35;;;;;;;;;;5117105;28;20619;-65
2022/11/26 04:48:23;;;;;;;51.50;22.35;;;;;;;;;;5117170;28;20564;-65
2022/11/26 04:50:51;;;;;;;48.40;22.73;;;;;;;;;;5115027;28;20204;-65
2022/11/26 04:53:20;;;;;;;51.00;21.92;;;;;;;;;;5115815;28;20228;-65
2022/11/26 04:55:48;;;;;;;62.15;21.33;;;;;;;;;;5115446;28;20642;-65
2022/11/26 04:58:15;;;;;;;46.75;21.30;;;;;;;;;;5115698;28;20221;-65
2022/11/26 05:00:43;;;;;;;50.45;22.23;;;;;;;;;;5115912;28;20189;-65
2022/11/26 05:03:10;;;;;;;47.55;22.20;;;;;;;;;;5116530;28;20222;-65
2022/11/26 05:05:39;;;;;;;59.85;22.30;;;;;;;;;;5115734;28;20654;-66
2022/11/26 05:08:06;;;;;;;68.18;23.92;;;;;;;;;;5116376;28;20219;-65
2022/11/26 05:10:34;;;;;;;42.33;20.33;;;;;;;;;;5116821;28;20197;-65
2022/11/26 05:13:01;;;;;;;55.35;22.58;;;;;;;;;;5116552;28;20636;-65
2022/11/26 05:15:28;;;;;;;53.55;20.80;;;;;;;;;;5116615;28;20193;-65
2022/11/26 05:17:55;;;;;;;42.83;21.75;;;;;;;;;;5115905;28;20696;-65
2022/11/26 05:20:23;;;;;;;53.83;23.52;;;;;;;;;;5115276;28;20654;-65
2022/11/26 05:22:51;;;;;;;45.35;21.67;;;;;;;;;;5116656;28;20199;-65
2022/11/26 05:25:18;;;;;;;44.10;20.65;;;;;;;;;;5115780;28;20196;-66
2022/11/26 05:27:45;;;;;;;50.17;22.48;;;;;;;;;;5115874;28;20214;-66
2022/11/26 05:30:13;;;;;;;48.40;20.65;;;;;;;;;;5116361;28;20193;-65
2022/11/26 05:32:40;;;;;;;64.43;23.52;;;;;;;;;;5116222;28;20291;-65
2022/11/26 05:35:08;;;;;;;65.82;22.52;;;;;;;;;;5116059;28;20195;-65
2022/11/26 05:37:35;;;;;;;48.17;21.85;;;;;;;;;;5115711;28;20221;-65
2022/11/26 05:40:04;;;;;;;42.22;23.55;;;;;;;;;;5115384;28;20204;-65
2022/11/26 05:42:32;;;;;;;42.35;21.35;;;;;;;;;;5116044;28;20230;-65
2022/11/26 05:44:59;;;;;;;41.38;22.40;;;;;;;;;;5115968;28;20195;-65
2022/11/26 05:47:26;;;;;;;54.17;22.35;;;;;;;;;;5114781;28;20200;-65
2022/11/26 05:49:54;;;;;;;51.05;24.50;;;;;;;;;;5115668;28;20222;-66
2022/11/26 05:52:21;;;;;;;51.13;21.58;;;;;;;;;;5115744;28;20222;-65
2022/11/26 05:54:48;;;;;;;50.00;23.73;;;;;;;;;;5115718;28;20649;-66
2022/11/26 05:57:18;;;;;;;50.75;23.05;;;;;;;;;;5115560;28;20244;-65
2022/11/26 05:59:46;;;;;;;49.42;22.10;;;;;;;;;;5115430;28;20234;-65
2022/11/26 06:02:14;;;;;;;49.40;24.15;;;;;;;;;;5115394;28;20283;-66
2022/11/26 06:04:42;;;;;;;65.88;24.42;;;;;;;;;;5115556;28;20218;-65
2022/11/26 06:07:09;;;;;;;54.35;24.50;;;;;;;;;;5114399;28;20303;-65
2022/11/26 06:09:36;;;;;;;77.68;24.98;;;;;;;;;;5115108;27;20192;-66
2022/11/26 06:12:04;;;;;;;67.30;23.38;;;;;;;;;;5114849;28;20226;-65
2022/11/26 06:14:32;;;;;;;70.55;24.30;;;;;;;;;;5114985;28;20200;-65
2022/11/26 06:17:00;;;;;;;58.20;24.67;;;;;;;;;;5115321;28;20215;-65
2022/11/26 06:19:27;;;;;;;70.82;25.13;;;;;;;;;;5115161;28;20195;-65
2022/11/26 06:21:54;;;;;;;55.65;23.55;;;;;;;;;;5114803;28;20193;-65
2022/11/26 06:24:21;;;;;;;56.03;23.23;;;;;;;;;;5115098;28;20193;-65
2022/11/26 06:26:48;;;;;;;46.15;23.50;;;;;;;;;;5113944;28;20283;-66
2022/11/26 06:29:16;;;;;;;56.60;24.40;;;;;;;;;;5114490;28;20205;-66
2022/11/26 06:31:45;;;;;;;54.88;24.45;;;;;;;;;;5113638;28;20198;-65
2022/11/26 06:34:12;;;;;;;58.08;22.77;;;;;;;;;;5114749;28;20560;-66
2022/11/26 06:36:39;;;;;;;70.00;26.60;;;;;;;;;;5114674;28;20200;-65
2022/11/26 06:39:07;;;;;;;58.45;25.27;;;;;;;;;;5114968;28;20198;-65
2022/11/26 06:41:34;;;;;;;58.67;27.52;;;;;;;;;;5114096;28;20202;-65
2022/11/26 06:44:01;;;;;;;75.70;26.83;;;;;;;;;;5114599;28;20181;-65
2022/11/26 06:46:28;;;;;;;70.35;25.83;;;;;;;;;;5114680;28;20197;-65
2022/11/26 06:49:01;;;;;;;67.40;28.00;;;;;;;;;;5114720;28;20200;-65
2022/11/26 06:51:28;;;;;;;105.90;28.48;;;;;;;;;;5114272;28;20188;-65
2022/11/26 06:53:55;;;;;;;100.57;28.05;;;;;;;;;;5114674;28;20203;-65
2022/11/26 06:56:22;;;;;;;56.17;25.60;;;;;;;;;;5114188;28;20199;-65
2022/11/26 06:58:50;;;;;;;76.82;28.92;;;;;;;;;;5114149;28;20217;-65
2022/11/26 07:01:18;;;;;;;70.05;27.02;;;;;;;;;;5114075;28;20751;-65
2022/11/26 07:03:46;;;;;;;75.90;28.20;;;;;;;;;;5114094;28;20647;-65
2022/11/26 07:06:18;;;;;;;55.65;26.23;;;;;;;;;;5114287;28;20189;-65
2022/11/26 07:08:46;;;;;;;62.97;27.88;;;;;;;;;;5114081;28;20202;-66
2022/11/26 07:11:13;;;;;;;90.00;29.10;;;;;;;;;;5114262;28;20599;-65
2022/11/26 07:13:41;;;;;;;70.22;27.48;;;;;;;;;;5114711;28;20244;-65
2022/11/26 07:16:08;;;;;;;63.03;26.60;;;;;;;;;;5114374;28;20193;-65
2022/11/26 07:18:36;;;;;;;75.60;28.42;;;;;;;;;;5114244;28;20735;-65
2022/11/26 07:21:07;;;;;;;73.30;28.00;;;;;;;;;;5114405;28;20204;-68
2022/11/26 07:23:36;;;;;;;79.82;31.02;;;;;;;;;;5114306;28;20558;-66
2022/11/26 07:26:03;;;;;;;80.25;29.08;;;;;;;;;;5114206;28;20197;-66
2022/11/26 07:28:31;;;;;;;78.20;28.77;;;;;;;;;;5114032;28;20200;-65
2022/11/26 07:31:00;;;;;;;72.15;28.73;;;;;;;;;;5113842;28;20200;-65
2022/11/26 07:33:27;;;;;;;73.40;28.17;;;;;;;;;;5114044;28;20589;-65
2022/11/26 07:35:55;;;;;;;75.10;27.42;;;;;;;;;;5111992;28;20204;-66
2022/11/26 07:38:22;;;;;;;81.25;28.25;;;;;;;;;;5113599;28;20230;-65
2022/11/26 07:40:50;;;;;;;85.20;25.42;;;;;;;;;;5114180;28;20200;-65
2022/11/26 07:43:18;;;;;;;72.35;27.48;;;;;;;;;;5113300;28;20686;-65
2022/11/26 07:45:45;;;;;;;68.07;25.92;;;;;;;;;;5113852;28;20618;-65
2022/11/26 07:48:12;;;;;;;70.78;27.50;;;;;;;;;;5113353;28;20208;-65
2022/11/26 07:50:43;;;;;;;61.92;25.55;;;;;;;;;;5113808;28;20538;-65
2022/11/26 07:53:10;;;;;;;58.97;26.60;;;;;;;;;;5113700;28;20286;-66
2022/11/26 07:55:38;;;;;;;59.45;23.42;;;;;;;;;;5113200;28;20279;-66
2022/11/26 07:58:07;;;;;;;59.33;28.50;;;;;;;;;;5113547;28;20310;-65
2022/11/26 08:00:34;;;;;;;64.38;25.10;;;;;;;;;;5113735;28;20649;-65
2022/11/26 08:03:01;;;;;;;52.13;23.70;;;;;;;;;;5113253;28;20349;-65
2022/11/26 08:05:28;;;;;;;62.15;22.08;;;;;;;;;;5113503;28;20616;-65
2022/11/26 08:07:56;;;;;;;48.90;21.48;;;;;;;;;;5113545;28;20557;-65
2022/11/26 08:10:23;;;;;;;50.35;20.42;;;;;;;;;;5113480;28;20225;-65
2022/11/26 08:12:50;;;;;;;46.42;21.02;;;;;;;;;;5113548;28;20206;-65
2022/11/26 08:15:19;;;;;;;55.03;20.45;;;;;;;;;;5113393;28;20661;-65
2022/11/26 08:17:46;;;;;;;44.47;19.95;;;;;;;;;;5113371;28;20568;-65
2022/11/26 08:20:14;;;;;;;56.08;21.70;;;;;;;;;;5113491;28;20206;-65
2022/11/26 08:22:41;;;;;;;35.13;19.50;;;;;;;;;;5113529;28;20200;-65
2022/11/26 08:25:09;;;;;;;45.28;21.50;;;;;;;;;;5112532;28;20193;-65
2022/11/26 08:27:36;;;;;;;44.60;20.00;;;;;;;;;;5112947;28;20556;-65
2022/11/26 08:30:03;;;;;;;38.58;19.27;;;;;;;;;;5113534;28;20239;-65
2022/11/26 08:32:32;;;;;;;39.58;19.70;;;;;;;;;;5113072;28;20206;-65
2022/11/26 08:34:59;;;;;;;49.58;21.60;;;;;;;;;;5113367;28;20223;-65
2022/11/26 08:37:26;;;;;;;52.72;21.23;;;;;;;;;;5113257;28;20226;-65
2022/11/26 08:39:53;;;;;;;50.33;21.08;;;;;;;;;;5113267;28;20199;-65
2022/11/26 08:42:21;;;;;;;45.88;21.50;;;;;;;;;;5112889;28;20223;-65
2022/11/26 08:44:50;;;;;;;48.28;21.38;;;;;;;;;;5113281;28;20195;-65
2022/11/26 08:47:17;;;;;;;42.30;21.67;;;;;;;;;;5113000;28;20684;-65
2022/11/26 08:49:48;;;;;;;46.78;22.73;;;;;;;;;;5113052;28;20204;-65
2022/11/26 08:52:15;;;;;;;37.33;21.83;;;;;;;;;;5113423;28;20270;-65
2022/11/26 08:54:42;;;;;;;46.47;23.42;;;;;;;;;;5113761;28;20225;-65
2022/11/26 08:57:10;;;;;;;54.65;22.05;;;;;;;;;;5116856;28;20279;-65
2022/11/26 08:59:37;;;;;;;50.78;22.30;;;;;;;;;;5116736;28;20292;-65
2022/11/26 09:02:04;;;;;;;45.03;22.10;;;;;;;;;;5116469;28;20647;-65
2022/11/26 09:04:31;;;;;;;38.20;21.17;;;;;;;;;;5116653;28;20195;-66
2022/11/26 09:07:00;;;;;;;45.67;23.10;;;;;;;;;;5116794;28;20188;-65
2022/11/26 09:09:27;;;;;;;37.63;22.17;;;;;;;;;;5116721;28;20204;-65
2022/11/26 09:11:59;;;;;;;45.85;23.73;;;;;;;;;;5116870;28;20279;-65
2022/11/26 09:14:29;;;;;;;39.50;23.40;;;;;;;;;;5116765;28;20190;-65
2022/11/26 09:16:57;;;;;;;47.30;24.13;;;;;;;;;;5116992;28;20283;-66
2022/11/26 09:19:24;;;;;;;48.70;24.77;;;;;;;;;;5116514;28;20223;-66
2022/11/26 09:21:51;;;;;;;65.25;25.75;;;;;;;;;;5117042;28;20196;-66
2022/11/26 09:24:20;;;;;;;49.92;26.40;;;;;;;;;;5116615;28;20192;-66
2022/11/26 09:26:48;;;;;;;58.78;24.45;;;;;;;;;;5116298;28;20193;-65
2022/11/26 09:29:16;;;;;;;50.08;25.05;;;;;;;;;;5115849;28;20230;-65
2022/11/26 09:31:44;;;;;;;53.08;26.67;;;;;;;;;;5116339;28;20193;-65
2022/11/26 09:34:11;;;;;;;54.92;23.83;;;;;;;;;;5116271;28;20200;-65
2022/11/26 09:36:39;;;;;;;41.38;22.83;;;;;;;;;;5116171;28;20203;-65
2022/11/26 09:39:06;;;;;;;50.10;23.27;;;;;;;;;;5115618;28;20223;-65
2022/11/26 09:41:41;;;;;;;48.60;23.45;;;;;;;;;;5116046;28;20196;-66
2022/11/26 09:44:15;;;;;;;40.75;22.70;;;;;;;;;;5116349;27;20185;-65
2022/11/26 09:46:48;;;;;;;49.40;20.20;;;;;;;;;;5116126;28;20184;-65
2022/11/26 09:49:16;;;;;;;34.20;21.27;;;;;;;;;;5115553;28;20649;-66
2022/11/26 09:51:45;;;;;;;49.63;21.02;;;;;;;;;;5115840;28;20600;-65
2022/11/26 09:54:16;;;;;;;41.83;19.30;;;;;;;;;;5115936;28;20213;-65
2022/11/26 09:56:46;;;;;;;42.08;18.38;;;;;;;;;;5114614;28;20192;-65
2022/11/26 09:59:15;;;;;;;34.72;18.40;;;;;;;;;;5115073;28;20220;-65
2022/11/26 10:01:43;;;;;;;38.30;20.10;;;;;;;;;;5115283;28;20196;-65
2022/11/26 10:04:13;;;;;;;34.97;18.63;;;;;;;;;;5115404;28;20370;-65
2022/11/26 10:06:46;;;;;;;50.05;19.80;;;;;;;;;;5115707;28;20197;-65
2022/11/26 10:09:24;;;;;;;40.00;19.52;;;;;;;;;;5115031;28;20191;-65
2022/11/26 10:11:56;;;;;;;34.50;20.00;;;;;;;;;;5115230;28;20198;-65
2022/11/26 10:14:46;;;;;;;32.93;18.03;;;;;;;;;;5114945;28;20430;-65
2022/11/26 10:17:24;;;;;;;40.15;19.20;;;;;;;;;;5115024;28;20431;-66
2022/11/26 10:19:57;;;;;;;37.40;19.33;;;;;;;;;;5115141;28;20211;-66
2022/11/26 10:22:26;;;;;;;38.13;19.50;;;;;;;;;;5114687;28;20233;-66
2022/11/26 10:24:54;;;;;;;38.45;16.80;;;;;;;;;;5114702;28;20188;-65
2022/11/26 10:27:25;;;;;;;45.93;18.10;;;;;;;;;;5114477;28;20196;-65
2022/11/26 10:29:55;;;;;;;34.77;17.90;;;;;;;;;;5114799;28;20441;-64
2022/11/26 10:32:25;;;;;;;37.00;17.97;;;;;;;;;;5114870;28;20446;-65
2022/11/26 10:34:53;;;;;;;35.37;17.67;;;;;;;;;;5114526;28;20435;-66
2022/11/26 10:37:21;;;;;;;44.80;17.93;;;;;;;;;;5114467;28;20522;-65
2022/11/26 10:39:49;;;;;;;36.80;17.60;;;;;;;;;;5114590;28;20531;-65
2022/11/26 10:42:17;;;;;;;38.93;18.67;;;;;;;;;;5114485;28;20225;-66
2022/11/26 10:44:47;;;;;;;28.53;15.67;;;;;;;;;;5115177;28;20452;-66
2022/11/26 10:47:22;;;;;;;31.80;17.30;;;;;;;;;;5115053;28;20463;-65
2022/11/26 10:49:49;;;;;;;33.37;16.63;;;;;;;;;;5114484;28;20206;-65
2022/11/26 10:52:18;;;;;;;29.73;15.97;;;;;;;;;;5114209;28;20440;-65
2022/11/26 10:54:46;;;;;;;32.45;18.08;;;;;;;;;;5114841;28;20568;-65
2022/11/26 10:57:14;;;;;;;27.07;16.30;;;;;;;;;;5114169;28;20650;-66
2022/11/26 10:59:46;;;;;;;29.02;15.93;;;;;;;;;;5114690;28;20493;-66
2022/11/26 11:02:23;;;;;;;21.00;15.87;;;;;;;;;;5114429;28;20189;-65
2022/11/26 11:04:51;;;;;;;28.70;15.40;;;;;;;;;;5114614;28;20427;-65
2022/11/26 11:07:29;;;;;;;29.80;15.90;;;;;;;;;;5114354;28;20193;-65
2022/11/26 11:10:02;;;;;;;34.00;16.67;;;;;;;;;;5114350;28;20185;-65
2022/11/26 11:12:29;;;;;;;41.28;17.25;;;;;;;;;;5114375;28;20426;-65
2022/11/26 11:14:56;;;;;;;32.97;17.20;;;;;;;;;;5114084;28;20198;-65
2022/11/26 11:17:35;;;;;;;30.50;16.43;;;;;;;;;;5113475;28;20435;-65
2022/11/26 11:20:07;;;;;;;29.77;14.93;;;;;;;;;;5114446;28;20473;-65
2022/11/26 11:22:34;;;;;;;32.65;17.48;;;;;;;;;;5114303;28;20415;-65
2022/11/26 11:25:01;;;;;;;30.53;16.27;;;;;;;;;;5113617;28;20199;-65
2022/11/26 11:27:33;;;;;;;39.23;15.50;;;;;;;;;;5114120;28;20445;-66
2022/11/26 11:30:01;;;;;;;33.00;15.50;;;;;;;;;;5113993;28;20463;-66
2022/11/26 11:32:37;;;;;;;28.20;16.33;;;;;;;;;;5113814;28;20457;-65
2022/11/26 11:35:21;;;;;;;39.33;15.70;;;;;;;;;;5113667;28;20451;-65
2022/11/26 11:37:49;;;;;;;44.25;17.20;;;;;;;;;;5114131;28;20472;-64
2022/11/26 11:40:22;;;;;;;30.60;16.87;;;;;;;;;;5113279;28;20715;-65
2022/11/26 11:42:50;;;;;;;25.10;14.80;;;;;;;;;;5113697;28;20829;-64
2022/11/26 11:45:22;;;;;;;34.90;15.53;;;;;;;;;;5113691;28;20445;-65
2022/11/26 11:47:51;;;;;;;30.03;14.77;;;;;;;;;;5113542;28;20456;-65
2022/11/26 11:50:23;;;;;;;27.40;15.47;;;;;;;;;;5113272;28;20481;-65
2022/11/26 11:52:54;;;;;;;28.15;15.45;;;;;;;;;;5113775;28;20843;-65
2022/11/26 11:55:24;;;;;;;32.40;15.87;;;;;;;;;;5113538;28;20195;-66
2022/11/26 11:58:08;;;;;;;38.00;15.60;;;;;;;;;;5113508;28;20435;-65
2022/11/26 12:00:39;;;;;;;28.90;14.20;;;;;;;;;;5113696;28;20915;-65
2022/11/26 12:03:21;;;;;;;28.03;15.00;;;;;;;;;;5113404;28;20916;-65
2022/11/26 12:05:51;;;;;;;29.67;14.70;;;;;;;;;;5113237;28;20426;-65
2022/11/26 12:08:33;;;;;;;40.60;15.60;;;;;;;;;;5113146;28;20254;-65
2022/11/26 12:11:07;;;;;;;29.30;15.03;;;;;;;;;;5112202;28;20450;-65
2022/11/26 12:13:37;;;;;;;29.63;13.50;;;;;;;;;;5113415;28;20496;-65
2022/11/26 12:16:08;;;;;;;26.40;13.63;;;;;;;;;;5113089;28;20790;-66
2022/11/26 12:18:41;;;;;;;34.23;16.13;;;;;;;;;;5112933;28;20462;-66
2022/11/26 12:21:10;;;;;;;30.87;13.43;;;;;;;;;;5113134;28;20984;-65
2022/11/26 12:23:39;;;;;;;34.63;13.73;;;;;;;;;;5113192;28;20435;-65
2022/11/26 12:26:07;;;;;;;26.73;13.83;;;;;;;;;;5113199;28;20534;-65
2022/11/26 12:28:37;;;;;;;31.73;15.60;;;;;;;;;;5113203;28;20536;-66
2022/11/26 12:31:07;;;;;;;23.97;14.73;;;;;;;;;;5116908;28;20515;-65
2022/11/26 12:33:40;;;;;;;30.37;13.03;;;;;;;;;;5117083;28;20445;-66
2022/11/26 12:36:15;;;;;;;32.87;13.80;;;;;;;;;;5117147;28;20472;-66
2022/11/26 12:38:44;;;;;;;27.53;12.07;;;;;;;;;;5116741;28;20924;-65
2022/11/26 12:41:13;;;;;;;28.03;13.57;;;;;;;;;;5116669;28;20516;-65
2022/11/26 12:43:45;;;;;;;23.07;12.73;;;;;;;;;;5116557;28;20550;-65
2022/11/26 12:46:17;;;;;;;22.63;15.53;;;;;;;;;;5116993;28;20417;-66
2022/11/26 12:48:48;;;;;;;25.43;12.57;;;;;;;;;;5116891;28;20423;-66
2022/11/26 12:51:20;;;;;;;28.03;11.90;;;;;;;;;;5116648;28;20440;-65
2022/11/26 12:53:50;;;;;;;21.83;14.90;;;;;;;;;;5116665;28;20427;-65
2022/11/26 12:56:19;;;;;;;27.90;10.77;;;;;;;;;;5116092;28;20457;-65
2022/11/26 12:58:49;;;;;;;24.00;12.97;;;;;;;;;;5116274;28;20474;-65
2022/11/26 13:01:16;;;;;;;34.07;12.00;;;;;;;;;;5116202;28;20439;-65
2022/11/26 13:03:44;;;;;;;30.07;13.13;;;;;;;;;;5116567;28;20537;-66
2022/11/26 13:06:17;;;;;;;23.87;11.13;;;;;;;;;;5116162;28;20444;-67
2022/11/26 13:08:49;;;;;;;25.20;10.90;;;;;;;;;;5115985;28;20439;-67
2022/11/26 13:11:23;;;;;;;25.97;12.27;;;;;;;;;;5116254;28;20542;-67
2022/11/26 13:13:54;;;;;;;23.47;11.67;;;;;;;;;;5116860;28;20438;-66
2022/11/26 13:16:24;;;;;;;28.00;11.90;;;;;;;;;;5116308;28;20940;-66
2022/11/26 13:18:52;;;;;;;26.30;12.40;;;;;;;;;;5116306;28;20566;-65
2022/11/26 13:21:26;;;;;;;23.03;10.17;;;;;;;;;;5115744;28;20475;-66
2022/11/26 13:24:01;;;;;;;22.83;10.77;;;;;;;;;;5115922;28;20427;-66
2022/11/26 13:26:37;;;;;;;43.80;10.90;;;;;;;;;;5115794;28;20465;-66
2022/11/26 13:29:14;;;;;;;25.60;10.40;;;;;;;;;;5115816;28;20441;-66
2022/11/26 13:31:48;;;;;;;23.53;9.70;;;;;;;;;;5116321;28;20453;-66
2022/11/26 13:34:23;;;;;;;16.10;9.07;;;;;;;;;;5116062;28;20428;-66
2022/11/26 13:37:02;;;;;;;15.07;8.90;;;;;;;;;;5115520;28;20441;-66
2022/11/26 13:39:45;;;;;;;20.40;8.60;;;;;;;;;;5115734;28;20541;-65
2022/11/26 13:42:21;;;;;;;23.53;9.87;;;;;;;;;;5115340;28;20543;-66
2022/11/26 13:45:09;;;;;;;20.07;8.80;;;;;;;;;;5115820;28;20765;-66
2022/11/26 13:47:39;;;;;;;16.60;8.20;;;;;;;;;;5115491;28;20474;-66
2022/11/26 13:50:07;;;;;;;30.80;8.57;;;;;;;;;;5115812;28;20443;-66
2022/11/26 13:52:38;;;;;;;20.23;8.60;;;;;;;;;;5115671;28;20533;-66
2022/11/26 13:55:09;;;;;;;22.73;9.83;;;;;;;;;;5115673;28;20761;-66
2022/11/26 13:57:39;;;;;;;21.80;7.70;;;;;;;;;;5115291;28;20442;-65
2022/11/26 14:00:07;;;;;;;21.17;9.40;;;;;;;;;;5115489;28;20482;-66
2022/11/26 14:02:41;;;;;;;15.80;6.93;;;;;;;;;;5115406;28;20438;-66
2022/11/26 14:05:10;;;;;;;27.47;8.33;;;;;;;;;;5115757;28;20427;-66
2022/11/26 14:07:37;;;;;;;23.63;7.67;;;;;;;;;;5115309;28;20435;-65
2022/11/26 14:10:05;;;;;;;19.50;6.10;;;;;;;;;;5115226;28;20448;-66
2022/11/26 14:12:51;;;;;;;13.97;6.43;;;;;;;;;;5115275;28;20533;-66
2022/11/26 14:15:33;;;;;;;22.00;6.40;;;;;;;;;;5115660;28;20445;-66
2022/11/26 14:18:01;;;;;;;20.83;8.43;;;;;;;;;;5114720;28;20446;-66
2022/11/26 14:20:28;;;;;;;22.63;7.63;;;;;;;;;;5115140;28;20474;-65
2022/11/26 14:22:56;;;;;;;15.97;7.57;;;;;;;;;;5115050;28;20447;-66
2022/11/26 14:25:37;;;;;;;17.23;7.23;;;;;;;;;;5115050;28;20447;-66
2022/11/26 14:28:06;;;;;;;25.77;7.60;;;;;;;;;;5115131;28;20492;-66
2022/11/26 14:30:34;;;;;;;26.13;7.77;;;;;;;;;;5114603;28;20461;-65